Time;durP1;ratioP1;P1;durP2;ratioP2;P2;SDS_P1;SDS_P2;PMS_P1;PMS_P2;Temp;Humidity;BMP_temperature;BMP_pressure;BME280_temperature;BME280_humidity;BME280_pressure;Samples;Min_cycle;Max_cycle;Signal;HPM_P1;HPM_P2
2020/12/06 00:00:43;;;;;;;;;;;;;;;-0.29;100.00;91194.25;1063361;55;20157;-86
2020/12/06 00:01:43;;;;;;;;;;;;;;;-0.28;100.00;91192.38;1061352;55;20198;-83
2020/12/06 00:02:44;;;;;;;;;;;;;;;-0.27;100.00;91191.22;1065519;55;20204;-83
2020/12/06 00:03:45;;;;;;;;;;;;;;;-0.30;100.00;91187.53;1065442;55;20169;-85
2020/12/06 00:04:45;;;;;;;;;;;;;;;-0.30;100.00;91190.16;1061194;56;20654;-82
2020/12/06 00:05:45;;;;;;;;;;;;;;;-0.34;100.00;91186.81;1063323;55;20267;-84
2020/12/06 00:06:47;;;;;;;;;;;;;;;-0.35;100.00;91187.19;1065438;55;20168;-85
2020/12/06 00:07:47;;;;;;;;;;;;;;;-0.29;100.00;91199.50;1067573;55;20172;-83
2020/12/06 00:08:49;;;;;;;;;;;;;;;-0.24;100.00;91197.56;1067717;55;20173;-84
2020/12/06 00:09:49;;;;;;;;;;;;;;;-0.31;100.00;91196.53;1067744;55;20150;-83
2020/12/06 00:10:50;;;;;;;;;;;;;;;-0.33;100.00;91190.19;1065582;55;20652;-84
2020/12/06 00:11:50;;;;;;;;;;;;;;;-0.35;100.00;91193.22;1061278;56;20189;-83
2020/12/06 00:12:51;;;;;;;;;;;;;;;-0.34;100.00;91202.56;1061306;56;20173;-87
2020/12/06 00:13:51;;;;;;;;;;;;;;;-0.33;100.00;91183.06;1061179;56;20190;-83
2020/12/06 00:14:52;;;;;;;;;;;;;;;-0.40;100.00;91185.00;1063463;55;20563;-83
2020/12/06 00:15:52;;;;;;;;;;;;;;;-0.38;100.00;91180.88;1061393;56;20166;-83
2020/12/06 00:16:53;;;;;;;;;;;;;;;-0.35;100.00;91172.22;1063533;55;20196;-82
2020/12/06 00:17:53;;;;;;;;;;;;;;;-0.34;100.00;91167.72;1065646;55;20158;-85
2020/12/06 00:18:54;;;;;;;;;;;;;;;-0.32;100.00;91165.41;1065637;55;20177;-83
2020/12/06 00:19:55;;;;;;;;;;;;;;;-0.31;100.00;91161.66;1067689;55;20168;-83
2020/12/06 00:20:55;;;;;;;;;;;;;;;-0.31;100.00;91154.53;1065635;55;20189;-82
2020/12/06 00:21:56;;;;;;;;;;;;;;;-0.31;100.00;91149.28;1063246;56;20158;-83
2020/12/06 00:22:57;;;;;;;;;;;;;;;-0.34;100.00;91139.56;1063406;56;20174;-83
2020/12/06 00:23:57;;;;;;;;;;;;;;;-0.33;100.00;91129.81;1065633;55;20625;-84
2020/12/06 00:24:58;;;;;;;;;;;;;;;-0.32;100.00;91126.03;1063315;56;20166;-85
2020/12/06 00:25:58;;;;;;;;;;;;;;;-0.30;100.00;91129.03;1067773;55;20165;-84
2020/12/06 00:26:59;;;;;;;;;;;;;;;-0.29;100.00;91135.75;1067658;55;20169;-84
2020/12/06 00:28:00;;;;;;;;;;;;;;;-0.28;100.00;91129.37;1067694;55;20214;-85
2020/12/06 00:29:01;;;;;;;;;;;;;;;-0.33;100.00;91138.44;1063580;56;20178;-83
2020/12/06 00:30:04;;;;;;;;;;;;;;;-0.32;100.00;91128.66;1065606;55;20658;-83
2020/12/06 00:31:05;;;;;;;;;;;;;;;-0.30;100.00;91142.16;1065677;55;20251;-83
2020/12/06 00:32:05;;;;;;;;;;;;;;;-0.32;100.00;91139.16;1063467;56;20193;-83
2020/12/06 00:33:06;;;;;;;;;;;;;;;-0.17;100.00;91140.47;1063497;56;20244;-85
2020/12/06 00:34:06;;;;;;;;;;;;;;;-0.13;100.00;91135.91;1063643;56;20170;-84
2020/12/06 00:35:07;;;;;;;;;;;;;;;-0.12;100.00;91121.66;1065534;55;20186;-82
2020/12/06 00:36:09;;;;;;;;;;;;;;;-0.08;100.00;91121.59;1063534;55;20251;-83
2020/12/06 00:37:10;;;;;;;;;;;;;;;-0.06;100.00;91109.53;1063901;55;20270;-84
2020/12/06 00:38:10;;;;;;;;;;;;;;;-0.19;100.00;91116.47;1063701;55;20243;-83
2020/12/06 00:39:11;;;;;;;;;;;;;;;-0.20;100.00;91115.00;1063709;55;20173;-84
2020/12/06 00:40:11;;;;;;;;;;;;;;;-0.25;100.00;91125.97;1063725;55;20719;-83
2020/12/06 00:41:13;;;;;;;;;;;;;;;-0.31;100.00;91130.91;1065879;55;20181;-84
2020/12/06 00:42:13;;;;;;;;;;;;;;;-0.35;100.00;91138.09;1068075;55;21116;-83
2020/12/06 00:43:14;;;;;;;;;;;;;;;-0.34;100.00;91133.59;1065863;55;20169;-83
2020/12/06 00:44:15;;;;;;;;;;;;;;;-0.26;100.00;91133.09;1063708;55;20619;-84
2020/12/06 00:45:15;;;;;;;;;;;;;;;-0.20;100.00;91127.41;1063822;55;20266;-84
2020/12/06 00:46:22;;;;;;;;;;;;;;;-0.18;100.00;91127.72;1065972;55;20166;-84
2020/12/06 00:47:23;;;;;;;;;;;;;;;-0.15;100.00;91121.69;1064090;55;20693;-85
2020/12/06 00:48:23;;;;;;;;;;;;;;;-0.10;100.00;91118.59;1065921;55;20158;-85
2020/12/06 00:49:23;;;;;;;;;;;;;;;-0.16;100.00;91125.47;1063598;55;20256;-84
2020/12/06 00:50:24;;;;;;;;;;;;;;;-0.15;100.00;91117.19;1065938;55;20169;-84
2020/12/06 00:51:24;;;;;;;;;;;;;;;-0.17;100.00;91126.59;1068119;55;20161;-85
2020/12/06 00:52:25;;;;;;;;;;;;;;;-0.19;100.00;91121.00;1065876;55;20157;-84
2020/12/06 00:53:26;;;;;;;;;;;;;;;-0.21;100.00;91126.66;1067994;55;20185;-83
2020/12/06 00:54:26;;;;;;;;;;;;;;;-0.19;100.00;91127.00;1068072;55;20176;-84
2020/12/06 00:55:27;;;;;;;;;;;;;;;-0.20;100.00;91132.66;1065825;55;20157;-84
2020/12/06 00:56:27;;;;;;;;;;;;;;;-0.24;100.00;91140.56;1065941;55;20157;-84
2020/12/06 00:57:28;;;;;;;;;;;;;;;-0.30;100.00;91142.91;1065903;55;20158;-84
2020/12/06 00:58:28;;;;;;;;;;;;;;;-0.34;100.00;91147.44;1065986;55;20161;-83
2020/12/06 00:59:29;;;;;;;;;;;;;;;-0.29;100.00;91154.88;1066089;55;20217;-84
2020/12/06 01:00:29;;;;;;;;;;;;;;;-0.28;100.00;91164.22;1068193;55;20266;-83
2020/12/06 01:01:30;;;;;;;;;;;;;;;-0.21;100.00;91160.03;1068300;55;20157;-85
2020/12/06 01:02:30;;;;;;;;;;;;;;;-0.23;100.00;91168.28;1066107;55;20146;-83
2020/12/06 01:03:31;;;;;;;;;;;;;;;-0.24;100.00;91161.56;1066007;55;20165;-83
2020/12/06 01:04:32;;;;;;;;;;;;;;;-0.23;100.00;91165.66;1065845;55;20161;-83
2020/12/06 01:05:33;;;;;;;;;;;;;;;0.02;100.00;91161.97;1066045;55;20253;-84
2020/12/06 01:06:34;;;;;;;;;;;;;;;0.06;100.00;91157.41;1070311;55;20256;-85
2020/12/06 01:07:39;;;;;;;;;;;;;;;0.05;100.00;91154.03;1070299;55;20191;-84
2020/12/06 01:08:40;;;;;;;;;;;;;;;-0.11;100.00;91151.25;1068287;55;20161;-83
2020/12/06 01:09:40;;;;;;;;;;;;;;;-0.12;100.00;91152.41;1068224;55;20226;-86
2020/12/06 01:10:41;;;;;;;;;;;;;;;-0.20;100.00;91151.75;1070213;55;20188;-83
2020/12/06 01:11:41;;;;;;;;;;;;;;;-0.22;100.00;91148.03;1065946;55;20204;-88
2020/12/06 01:12:43;;;;;;;;;;;;;;;-0.22;100.00;91140.94;1067890;55;20197;-84
2020/12/06 01:13:44;;;;;;;;;;;;;;;-0.23;100.00;91147.28;1070355;55;20157;-87
2020/12/06 01:14:44;;;;;;;;;;;;;;;-0.23;100.00;91155.16;1068141;55;20669;-85
2020/12/06 01:15:46;;;;;;;;;;;;;;;-0.24;100.00;91153.69;1065950;55;20169;-85
2020/12/06 01:16:50;;;;;;;;;;;;;;;-0.25;100.00;91157.47;1068016;55;20162;-85
2020/12/06 01:17:50;;;;;;;;;;;;;;;-0.28;100.00;91155.62;1068005;55;20212;-85
2020/12/06 01:18:51;;;;;;;;;;;;;;;-0.28;100.00;91155.62;1063730;55;20563;-83
2020/12/06 01:19:51;;;;;;;;;;;;;;;-0.26;100.00;91161.97;1065848;55;20176;-84
2020/12/06 01:20:52;;;;;;;;;;;;;;;-0.23;100.00;91152.53;1066069;55;20189;-83
2020/12/06 01:21:53;;;;;;;;;;;;;;;-0.24;100.00;91160.81;1067973;55;20165;-83
2020/12/06 01:22:53;;;;;;;;;;;;;;;-0.24;100.00;91153.69;1068044;55;20185;-84
2020/12/06 01:23:54;;;;;;;;;;;;;;;-0.28;100.00;91153.00;1063914;55;20146;-83
2020/12/06 01:24:54;;;;;;;;;;;;;;;-0.26;100.00;91153.34;1061570;56;20189;-84
2020/12/06 01:25:55;;;;;;;;;;;;;;;-0.20;100.00;91148.41;1063814;55;20243;-83
2020/12/06 01:26:57;;;;;;;;;;;;;;;-0.22;100.00;91138.31;1061641;55;20166;-86
2020/12/06 01:27:57;;;;;;;;;;;;;;;-0.24;100.00;91147.69;1063731;55;20247;-84
2020/12/06 01:28:58;;;;;;;;;;;;;;;-0.25;100.00;91154.84;1061762;56;20166;-83
2020/12/06 01:29:58;;;;;;;;;;;;;;;-0.28;100.00;91176.63;1063530;55;20653;-84
2020/12/06 01:30:59;;;;;;;;;;;;;;;-0.28;100.00;91179.97;1063870;55;20158;-85
2020/12/06 01:31:59;;;;;;;;;;;;;;;-0.24;100.00;91185.19;1063802;55;20185;-85
2020/12/06 01:33:00;;;;;;;;;;;;;;;-0.29;100.00;91178.50;1063779;55;20185;-82
2020/12/06 01:34:01;;;;;;;;;;;;;;;-0.26;100.00;91179.59;1063808;55;20649;-84
2020/12/06 01:35:03;;;;;;;;;;;;;;;-0.27;100.00;91178.84;1063824;55;20162;-83
2020/12/06 01:36:03;;;;;;;;;;;;;;;-0.22;100.00;91172.44;1061648;56;20221;-85
2020/12/06 01:37:04;;;;;;;;;;;;;;;-0.06;100.00;91169.94;1061547;56;20248;-84
2020/12/06 01:38:04;;;;;;;;;;;;;;;-0.13;100.00;91167.44;1063682;55;20150;-83
2020/12/06 01:39:05;;;;;;;;;;;;;;;-0.14;100.00;91175.69;1061693;56;20614;-85
2020/12/06 01:40:06;;;;;;;;;;;;;;;-0.18;100.00;91178.34;1061669;56;20208;-84
2020/12/06 01:41:08;;;;;;;;;;;;;;;-0.18;100.00;91188.09;1059533;56;20181;-84
2020/12/06 01:42:09;;;;;;;;;;;;;;;-0.16;100.00;91183.22;1061716;56;20174;-83
2020/12/06 01:43:09;;;;;;;;;;;;;;;-0.22;100.00;91190.81;1063772;55;20178;-84
2020/12/06 01:44:10;;;;;;;;;;;;;;;-0.26;100.00;91190.09;1063959;55;20189;-83
2020/12/06 01:45:11;;;;;;;;;;;;;;;-0.19;100.00;91190.00;1065881;55;20161;-83
2020/12/06 01:46:13;;;;;;;;;;;;;;;-0.17;100.00;91195.59;1065961;55;20593;-84
2020/12/06 01:47:13;;;;;;;;;;;;;;;-0.22;100.00;91197.91;1063770;55;20177;-83
2020/12/06 01:48:14;;;;;;;;;;;;;;;-0.26;100.00;91196.09;1061676;56;20155;-82
2020/12/06 01:49:15;;;;;;;;;;;;;;;-0.14;100.00;91191.44;1059471;56;20634;-85
2020/12/06 01:50:16;;;;;;;;;;;;;;;-0.13;100.00;91188.44;1059402;56;20174;-84
2020/12/06 01:51:16;;;;;;;;;;;;;;;-0.11;100.00;91183.50;1061554;56;20177;-84
2020/12/06 01:52:17;;;;;;;;;;;;;;;-0.16;100.00;91178.72;1061804;56;20618;-83
2020/12/06 01:53:18;;;;;;;;;;;;;;;-0.18;100.00;91170.47;1061756;56;20177;-83
2020/12/06 01:54:19;;;;;;;;;;;;;;;-0.17;100.00;91173.88;1063957;55;20150;-85
2020/12/06 01:55:19;;;;;;;;;;;;;;;-0.16;100.00;91162.97;1063949;55;20272;-83
2020/12/06 01:56:20;;;;;;;;;;;;;;;-0.21;100.00;91170.53;1066072;55;20181;-84
2020/12/06 01:57:20;;;;;;;;;;;;;;;-0.26;100.00;91180.34;1061758;56;20162;-85
2020/12/06 01:58:24;;;;;;;;;;;;;;;-0.29;100.00;91183.75;1059686;56;20253;-84
2020/12/06 01:59:25;;;;;;;;;;;;;;;-0.30;100.00;91187.53;1064050;55;20248;-85
2020/12/06 02:00:25;;;;;;;;;;;;;;;-0.27;100.00;91185.97;1066029;55;20162;-84
2020/12/06 02:01:26;;;;;;;;;;;;;;;-0.25;100.00;91183.72;1063859;55;20614;-85
2020/12/06 02:02:26;;;;;;;;;;;;;;;-0.27;100.00;91178.09;1061656;56;20202;-84
2020/12/06 02:03:27;;;;;;;;;;;;;;;-0.16;100.00;91181.34;1061788;56;20256;-83
2020/12/06 02:04:28;;;;;;;;;;;;;;;-0.15;100.00;91174.19;1063817;55;20185;-84
2020/12/06 02:05:29;;;;;;;;;;;;;;;-0.22;100.00;91175.06;1063727;55;20154;-84
2020/12/06 02:06:30;;;;;;;;;;;;;;;-0.18;100.00;91180.22;1061575;56;20158;-83
2020/12/06 02:07:34;;;;;;;;;;;;;;;-0.22;100.00;91167.19;1061687;56;20196;-85
2020/12/06 02:08:34;;;;;;;;;;;;;;;-0.20;100.00;91172.03;1063945;55;20252;-84
2020/12/06 02:09:35;;;;;;;;;;;;;;;-0.20;100.00;91167.50;1061581;56;20181;-84
2020/12/06 02:10:36;;;;;;;;;;;;;;;-0.07;100.00;91175.59;1059567;56;20163;-85
2020/12/06 02:11:37;;;;;;;;;;;;;;;-0.13;100.00;91171.91;1061879;55;20193;-84
2020/12/06 02:12:37;;;;;;;;;;;;;;;-0.10;100.00;91171.12;1063795;55;20281;-84
2020/12/06 02:13:38;;;;;;;;;;;;;;;-0.13;100.00;91169.28;1061680;56;20241;-84
2020/12/06 02:14:38;;;;;;;;;;;;;;;-0.07;100.00;91170.34;1061836;56;20166;-84
2020/12/06 02:15:39;;;;;;;;;;;;;;;-0.10;100.00;91171.88;1061936;55;20264;-85
2020/12/06 02:16:40;;;;;;;;;;;;;;;-0.10;100.00;91165.88;1063799;55;20162;-84
2020/12/06 02:17:40;;;;;;;;;;;;;;;-0.10;100.00;91164.00;1061965;56;20289;-84
2020/12/06 02:18:40;;;;;;;;;;;;;;;-0.14;100.00;91162.56;1063915;55;20606;-84
2020/12/06 02:19:42;;;;;;;;;;;;;;;-0.17;100.00;91150.97;1063956;55;20150;-85
2020/12/06 02:20:42;;;;;;;;;;;;;;;-0.16;100.00;91151.72;1063827;55;20653;-83
2020/12/06 02:21:43;;;;;;;;;;;;;;;-0.21;100.00;91139.03;1066000;55;20184;-83
2020/12/06 02:22:43;;;;;;;;;;;;;;;-0.22;100.00;91145.41;1065344;55;20165;-84
2020/12/06 02:23:44;;;;;;;;;;;;;;;-0.21;100.00;91145.03;1065999;55;20172;-83
2020/12/06 02:24:44;;;;;;;;;;;;;;;-0.20;100.00;91138.63;1063644;55;20173;-83
2020/12/06 02:25:45;;;;;;;;;;;;;;;-0.22;100.00;91142.78;1061592;56;20187;-84
2020/12/06 02:26:50;;;;;;;;;;;;;;;-0.20;100.00;91151.75;1061542;56;20154;-85
2020/12/06 02:27:50;;;;;;;;;;;;;;;-0.19;100.00;91155.12;1061864;55;20180;-85
2020/12/06 02:28:51;;;;;;;;;;;;;;;-0.21;100.00;91160.03;1061608;56;20169;-83
2020/12/06 02:29:51;;;;;;;;;;;;;;;-0.24;100.00;91152.94;1063719;55;20169;-83
2020/12/06 02:30:52;;;;;;;;;;;;;;;-0.20;100.00;91151.75;1063908;55;20661;-83
2020/12/06 02:31:52;;;;;;;;;;;;;;;-0.13;100.00;91154.28;1061644;56;20177;-84
2020/12/06 02:32:53;;;;;;;;;;;;;;;-0.12;100.00;91141.91;1063647;55;20153;-85
2020/12/06 02:33:53;;;;;;;;;;;;;;;-0.20;100.00;91151.03;1063802;55;20158;-83
2020/12/06 02:34:54;;;;;;;;;;;;;;;-0.19;100.00;91150.63;1065809;55;20165;-84
2020/12/06 02:35:54;;;;;;;;;;;;;;;-0.20;100.00;91161.53;1063725;55;20154;-85
2020/12/06 02:36:56;;;;;;;;;;;;;;;-0.21;100.00;91168.66;1061488;55;20263;-84
2020/12/06 02:37:57;;;;;;;;;;;;;;;-0.20;100.00;91164.16;1061492;56;20599;-83
2020/12/06 02:38:57;;;;;;;;;;;;;;;-0.22;100.00;91171.66;1063701;55;20188;-84
2020/12/06 02:39:58;;;;;;;;;;;;;;;-0.25;100.00;91165.34;1065847;55;20157;-84
2020/12/06 02:40:59;;;;;;;;;;;;;;;-0.26;100.00;91175.09;1061492;56;20555;-83
2020/12/06 02:41:59;;;;;;;;;;;;;;;-0.26;100.00;91179.59;1063820;55;20154;-84
2020/12/06 02:43:00;;;;;;;;;;;;;;;-0.29;100.00;91177.75;1063766;55;20153;-84
2020/12/06 02:44:02;;;;;;;;;;;;;;;-0.27;100.00;91178.09;1065932;55;20219;-84
2020/12/06 02:45:03;;;;;;;;;;;;;;;-0.22;100.00;91164.56;1065833;55;20180;-84
2020/12/06 02:46:03;;;;;;;;;;;;;;;-0.02;100.00;91154.88;1061557;56;20573;-82
2020/12/06 02:47:04;;;;;;;;;;;;;;;-0.11;100.00;91153.91;1061580;56;20193;-86
2020/12/06 02:48:05;;;;;;;;;;;;;;;-0.14;100.00;91147.53;1061569;55;20165;-85
2020/12/06 02:49:05;;;;;;;;;;;;;;;-0.15;100.00;91147.94;1065818;55;20200;-85
2020/12/06 02:50:06;;;;;;;;;;;;;;;-0.18;100.00;91143.47;1065845;55;20161;-83
2020/12/06 02:51:06;;;;;;;;;;;;;;;-0.18;100.00;91146.84;1061582;56;20181;-83
2020/12/06 02:52:08;;;;;;;;;;;;;;;-0.19;100.00;91148.00;1063737;55;20158;-83
2020/12/06 02:53:08;;;;;;;;;;;;;;;-0.23;100.00;91151.81;1063584;55;20665;-86
2020/12/06 02:54:09;;;;;;;;;;;;;;;-0.24;100.00;91139.81;1065837;55;20246;-85
2020/12/06 02:55:09;;;;;;;;;;;;;;;-0.23;100.00;91149.91;1065921;55;20679;-84
2020/12/06 02:56:11;;;;;;;;;;;;;;;-0.20;100.00;91140.53;1061688;55;20218;-83
2020/12/06 02:57:11;;;;;;;;;;;;;;;-0.19;100.00;91142.00;1061545;56;20294;-84
2020/12/06 02:58:12;;;;;;;;;;;;;;;-0.19;100.00;91142.00;1065812;55;20173;-85
2020/12/06 02:59:12;;;;;;;;;;;;;;;-0.15;100.00;91132.94;1063609;56;20163;-84
2020/12/06 03:00:13;;;;;;;;;;;;;;;-0.08;100.00;91138.09;1063715;55;21109;-84
2020/12/06 03:01:13;;;;;;;;;;;;;;;-0.16;100.00;91138.59;1068012;55;20161;-84
2020/12/06 03:02:14;;;;;;;;;;;;;;;-0.18;100.00;91132.97;1065855;55;20250;-85
2020/12/06 03:03:14;;;;;;;;;;;;;;;-0.25;100.00;91136.47;1063638;55;20192;-84
2020/12/06 03:04:16;;;;;;;;;;;;;;;-0.26;100.00;91130.47;1065825;55;20169;-85
2020/12/06 03:05:17;;;;;;;;;;;;;;;-0.21;100.00;91131.16;1063638;55;20172;-84
2020/12/06 03:06:18;;;;;;;;;;;;;;;-0.19;100.00;91132.25;1065692;55;20184;-84
2020/12/06 03:07:19;;;;;;;;;;;;;;;-0.17;100.00;91140.47;1065799;55;20169;-84
2020/12/06 03:08:19;;;;;;;;;;;;;;;-0.22;100.00;91137.53;1065806;55;20161;-84
2020/12/06 03:09:20;;;;;;;;;;;;;;;-0.20;100.00;91145.78;1063714;55;20188;-85
2020/12/06 03:10:21;;;;;;;;;;;;;;;-0.22;100.00;91138.31;1063500;55;20197;-84
2020/12/06 03:11:25;;;;;;;;;;;;;;;-0.22;100.00;91138.31;1063733;55;20275;-84
2020/12/06 03:12:25;;;;;;;;;;;;;;;-0.24;100.00;91137.94;1063842;55;20196;-85
2020/12/06 03:13:26;;;;;;;;;;;;;;;-0.26;100.00;91143.59;1063582;55;20162;-84
2020/12/06 03:14:27;;;;;;;;;;;;;;;-0.24;100.00;91143.19;1063578;55;20165;-85
2020/12/06 03:15:27;;;;;;;;;;;;;;;-0.23;100.00;91142.03;1063619;55;20161;-84
2020/12/06 03:16:28;;;;;;;;;;;;;;;-0.21;100.00;91141.66;1065753;55;20250;-85
2020/12/06 03:17:28;;;;;;;;;;;;;;;-0.20;100.00;91138.63;1063669;55;20208;-85
2020/12/06 03:18:29;;;;;;;;;;;;;;;-0.23;100.00;91138.69;1063669;55;20195;-84
2020/12/06 03:19:29;;;;;;;;;;;;;;;-0.21;100.00;91144.28;1065858;55;20161;-83
2020/12/06 03:20:30;;;;;;;;;;;;;;;-0.20;100.00;91145.78;1063898;55;20578;-86
2020/12/06 03:21:31;;;;;;;;;;;;;;;-0.22;100.00;91140.16;1065848;55;20158;-83
2020/12/06 03:22:34;;;;;;;;;;;;;;;-0.23;100.00;91144.66;1063729;55;20184;-84
2020/12/06 03:23:36;;;;;;;;;;;;;;;-0.18;100.00;91140.84;1061667;55;20150;-83
2020/12/06 03:24:37;;;;;;;;;;;;;;;-0.17;100.00;91135.22;1063927;55;20170;-82
2020/12/06 03:25:37;;;;;;;;;;;;;;;-0.16;100.00;91138.59;1061687;56;20190;-85
2020/12/06 03:26:38;;;;;;;;;;;;;;;-0.17;100.00;91137.09;1061600;56;20189;-84
2020/12/06 03:27:38;;;;;;;;;;;;;;;-0.23;100.00;91136.78;1065928;55;20157;-85
2020/12/06 03:28:39;;;;;;;;;;;;;;;-0.27;100.00;91133.47;1068132;55;20157;-84
2020/12/06 03:29:39;;;;;;;;;;;;;;;-0.19;100.00;91132.25;1063827;55;20220;-84
2020/12/06 03:30:40;;;;;;;;;;;;;;;-0.03;100.00;91131.66;1066045;55;20161;-84
2020/12/06 03:31:40;;;;;;;;;;;;;;;-0.08;100.00;91122.34;1066001;55;20170;-86
2020/12/06 03:32:41;;;;;;;;;;;;;;;-0.13;100.00;91125.41;1063925;55;20287;-82
2020/12/06 03:33:41;;;;;;;;;;;;;;;-0.15;100.00;91116.44;1063659;55;20161;-83
2020/12/06 03:34:42;;;;;;;;;;;;;;;-0.11;100.00;91123.13;1068158;55;20176;-84
2020/12/06 03:35:42;;;;;;;;;;;;;;;-0.13;100.00;91117.53;1065966;55;20258;-86
2020/12/06 03:36:43;;;;;;;;;;;;;;;-0.17;100.00;91124.72;1066063;55;20172;-84
2020/12/06 03:37:44;;;;;;;;;;;;;;;-0.16;100.00;91131.44;1066106;55;20248;-84
2020/12/06 03:38:44;;;;;;;;;;;;;;;-0.20;100.00;91136.00;1063823;55;20170;-85
2020/12/06 03:39:45;;;;;;;;;;;;;;;-0.21;100.00;91136.41;1063760;55;20158;-86
2020/12/06 03:40:45;;;;;;;;;;;;;;;-0.23;100.00;91133.44;1065861;55;20200;-85
2020/12/06 03:41:46;;;;;;;;;;;;;;;-0.21;100.00;91139.78;1061707;56;20673;-82
2020/12/06 03:42:49;;;;;;;;;;;;;;;-0.18;100.00;91143.47;1063621;55;20161;-84
2020/12/06 03:43:50;;;;;;;;;;;;;;;-0.17;100.00;91137.09;1063864;55;20279;-84
2020/12/06 03:44:50;;;;;;;;;;;;;;;-0.14;100.00;91129.16;1064064;55;20259;-82
2020/12/06 03:45:51;;;;;;;;;;;;;;;-0.14;100.00;91128.41;1065914;55;20180;-83
2020/12/06 03:46:51;;;;;;;;;;;;;;;-0.16;100.00;91128.81;1065994;55;20169;-83
2020/12/06 03:47:55;;;;;;;;;;;;;;;-0.14;100.00;91134.41;1063997;55;20154;-85
2020/12/06 03:48:55;;;;;;;;;;;;;;;-0.18;100.00;91133.72;1061881;55;20650;-85
2020/12/06 03:49:56;;;;;;;;;;;;;;;-0.21;100.00;91146.91;1061671;56;20146;-83
2020/12/06 03:50:56;;;;;;;;;;;;;;;-0.25;100.00;91152.22;1063721;55;20666;-85
2020/12/06 03:51:57;;;;;;;;;;;;;;;-0.28;100.00;91150.38;1063880;55;20165;-86
2020/12/06 03:52:57;;;;;;;;;;;;;;;-0.19;100.00;91147.25;1063799;55;20146;-83
2020/12/06 03:53:58;;;;;;;;;;;;;;;-0.14;100.00;91157.31;1063525;55;20157;-84
2020/12/06 03:54:58;;;;;;;;;;;;;;;-0.19;100.00;91153.25;1065794;55;20653;-84
2020/12/06 03:55:59;;;;;;;;;;;;;;;-0.20;100.00;91162.25;1065722;55;20154;-84
2020/12/06 03:56:59;;;;;;;;;;;;;;;-0.24;100.00;91158.19;1067884;55;20169;-83
2020/12/06 03:58:00;;;;;;;;;;;;;;;-0.28;100.00;91163.50;1065782;55;20574;-83
2020/12/06 03:59:01;;;;;;;;;;;;;;;-0.30;100.00;91163.16;1061466;55;20181;-86
2020/12/06 04:00:02;;;;;;;;;;;;;;;-0.32;100.00;91160.91;1063446;55;20184;-83
2020/12/06 04:01:04;;;;;;;;;;;;;;;-0.34;100.00;91157.94;1061442;55;20190;-88
2020/12/06 04:02:05;;;;;;;;;;;;;;;-0.26;100.00;91161.22;1063494;55;20166;-85
2020/12/06 04:03:06;;;;;;;;;;;;;;;-0.23;100.00;91157.06;1065572;55;20184;-84
2020/12/06 04:04:06;;;;;;;;;;;;;;;-0.18;100.00;91149.47;1063497;55;20239;-84
2020/12/06 04:05:07;;;;;;;;;;;;;;;-0.20;100.00;91146.50;1063416;55;20178;-83
2020/12/06 04:06:08;;;;;;;;;;;;;;;-0.20;100.00;91145.78;1065552;55;20166;-84
2020/12/06 04:07:10;;;;;;;;;;;;;;;-0.25;100.00;91157.47;1067886;55;20168;-84
2020/12/06 04:08:10;;;;;;;;;;;;;;;-0.27;100.00;91149.22;1065643;55;20246;-84
2020/12/06 04:09:11;;;;;;;;;;;;;;;-0.33;100.00;91141.06;1063459;55;20197;-84
2020/12/06 04:10:13;;;;;;;;;;;;;;;-0.22;100.00;91129.66;1067405;55;20629;-84
2020/12/06 04:11:15;;;;;;;;;;;;;;;-0.19;100.00;91142.75;1067682;55;20165;-83
2020/12/06 04:12:16;;;;;;;;;;;;;;;-0.25;100.00;91133.84;1067733;55;20152;-83
2020/12/06 04:13:16;;;;;;;;;;;;;;;-0.27;100.00;91130.84;1065566;55;20166;-83
2020/12/06 04:14:17;;;;;;;;;;;;;;;-0.31;100.00;91124.91;1067687;55;20956;-83
2020/12/06 04:15:17;;;;;;;;;;;;;;;-0.29;100.00;91131.25;1065630;55;20160;-84
2020/12/06 04:16:18;;;;;;;;;;;;;;;-0.27;100.00;91133.47;1063395;55;21108;-85
2020/12/06 04:17:18;;;;;;;;;;;;;;;-0.26;100.00;91130.47;1065508;55;20188;-84
2020/12/06 04:18:19;;;;;;;;;;;;;;;-0.29;100.00;91133.12;1065545;55;20181;-85
2020/12/06 04:19:20;;;;;;;;;;;;;;;-0.31;100.00;91136.16;1067788;55;20208;-84
2020/12/06 04:20:20;;;;;;;;;;;;;;;-0.30;100.00;91139.53;1065544;55;21102;-84
2020/12/06 04:21:21;;;;;;;;;;;;;;;-0.31;100.00;91135.41;1063457;56;20161;-85
2020/12/06 04:22:21;;;;;;;;;;;;;;;-0.27;100.00;91130.84;1063502;56;20154;-84
2020/12/06 04:23:22;;;;;;;;;;;;;;;-0.32;100.00;91134.66;1063237;56;20154;-84
2020/12/06 04:24:23;;;;;;;;;;;;;;;-0.26;100.00;91127.84;1063408;56;20165;-84
2020/12/06 04:25:23;;;;;;;;;;;;;;;-0.25;100.00;91139.09;1065559;55;20154;-85
2020/12/06 04:26:25;;;;;;;;;;;;;;;-0.32;100.00;91139.16;1067750;55;20630;-82
2020/12/06 04:27:26;;;;;;;;;;;;;;;-0.29;100.00;91143.63;1063315;56;20177;-85
2020/12/06 04:28:26;;;;;;;;;;;;;;;-0.33;100.00;91140.31;1063491;56;20184;-84
2020/12/06 04:29:26;;;;;;;;;;;;;;;-0.29;100.00;91148.88;1065503;55;20157;-84
2020/12/06 04:30:27;;;;;;;;;;;;;;;-0.31;100.00;91149.28;1067619;55;20188;-85
2020/12/06 04:31:28;;;;;;;;;;;;;;;-0.31;100.00;91151.16;1067790;55;20652;-83
2020/12/06 04:32:28;;;;;;;;;;;;;;;-0.33;100.00;91150.81;1065728;55;20200;-85
2020/12/06 04:33:29;;;;;;;;;;;;;;;-0.28;100.00;91150.38;1065717;55;20185;-84
2020/12/06 04:34:29;;;;;;;;;;;;;;;-0.32;100.00;91150.41;1063625;56;20257;-84
2020/12/06 04:35:30;;;;;;;;;;;;;;;-0.24;100.00;91150.31;1061328;56;20166;-84
2020/12/06 04:36:31;;;;;;;;;;;;;;;-0.20;100.00;91151.03;1063567;55;20189;-83
2020/12/06 04:37:32;;;;;;;;;;;;;;;-0.29;100.00;91147.00;1063789;55;20170;-84
2020/12/06 04:38:32;;;;;;;;;;;;;;;-0.32;100.00;91139.16;1063533;55;20158;-85
2020/12/06 04:39:33;;;;;;;;;;;;;;;-0.29;100.00;91144.37;1065649;55;20643;-83
2020/12/06 04:40:34;;;;;;;;;;;;;;;-0.24;100.00;91145.06;1065596;55;20154;-85
2020/12/06 04:41:34;;;;;;;;;;;;;;;-0.25;100.00;91149.59;1065647;55;20200;-87
2020/12/06 04:42:35;;;;;;;;;;;;;;;-0.28;100.00;91156.34;1063376;56;20166;-84
2020/12/06 04:43:37;;;;;;;;;;;;;;;-0.32;100.00;91149.66;1065746;55;20681;-84
2020/12/06 04:44:38;;;;;;;;;;;;;;;-0.31;100.00;91153.78;1067665;55;20302;-84
2020/12/06 04:45:39;;;;;;;;;;;;;;;-0.37;100.00;91147.50;1065599;55;20649;-84
2020/12/06 04:46:39;;;;;;;;;;;;;;;-0.30;100.00;91147.41;1065584;55;20186;-83
2020/12/06 04:47:55;;;;;;;;;;;;;;;-0.32;100.00;91147.03;1067776;55;20184;-83
2020/12/06 04:49:03;;;;;;;;;;;;;;;-0.30;100.00;91142.91;1067944;55;20169;-83
2020/12/06 04:50:04;;;;;;;;;;;;;;;-0.23;100.00;91138.69;1065598;55;20197;-85
2020/12/06 04:51:05;;;;;;;;;;;;;;;-0.26;100.00;91148.09;1065663;55;20162;-84
2020/12/06 04:52:09;;;;;;;;;;;;;;;-0.26;100.00;91148.84;1063472;56;20641;-84
2020/12/06 04:53:12;;;;;;;;;;;;;;;-0.30;100.00;91150.03;1063899;55;20189;-85
2020/12/06 04:54:17;;;;;;;;;;;;;;;-0.26;100.00;91150.72;1063596;55;20266;-86
2020/12/06 04:55:19;;;;;;;;;;;;;;;-0.26;100.00;91153.34;1063812;55;20185;-83
2020/12/06 04:56:21;;;;;;;;;;;;;;;-0.28;100.00;91163.50;1063735;55;21265;-84
2020/12/06 04:57:22;;;;;;;;;;;;;;;-0.31;100.00;91157.16;1065825;55;20208;-84
2020/12/06 04:58:24;;;;;;;;;;;;;;;-0.37;100.00;91153.47;1063685;55;20197;-84
2020/12/06 04:59:26;;;;;;;;;;;;;;;-0.33;100.00;91150.81;1061544;55;20154;-84
2020/12/06 05:00:31;;;;;;;;;;;;;;;-0.30;100.00;91145.53;1063710;55;20264;-85
2020/12/06 05:01:35;;;;;;;;;;;;;;;-0.29;100.00;91148.88;1063685;55;20154;-84
2020/12/06 05:02:37;;;;;;;;;;;;;;;-0.26;100.00;91143.59;1065735;55;20227;-86
2020/12/06 05:03:38;;;;;;;;;;;;;;;-0.25;100.00;91144.34;1063573;55;20185;-85
2020/12/06 05:04:40;;;;;;;;;;;;;;;-0.25;100.00;91149.59;1065652;55;20162;-84
2020/12/06 05:05:41;;;;;;;;;;;;;;;-0.27;100.00;91149.22;1067863;55;20192;-84
2020/12/06 05:06:42;;;;;;;;;;;;;;;-0.27;100.00;91152.59;1065894;55;20197;-86
2020/12/06 05:07:44;;;;;;;;;;;;;;;-0.28;100.00;91156.34;1061396;55;20166;-85
2020/12/06 05:08:45;;;;;;;;;;;;;;;-0.33;100.00;91150.81;1061389;55;20162;-84
2020/12/06 05:09:48;;;;;;;;;;;;;;;-0.29;100.00;91152.25;1063426;55;20252;-83
2020/12/06 05:10:48;;;;;;;;;;;;;;;-0.28;100.00;91145.84;1063402;55;20181;-82
2020/12/06 05:11:49;;;;;;;;;;;;;;;-0.23;100.00;91141.31;1065723;55;20594;-85
2020/12/06 05:12:50;;;;;;;;;;;;;;;-0.29;100.00;91133.88;1063596;56;20154;-84
2020/12/06 05:13:50;;;;;;;;;;;;;;;-0.29;100.00;91141.00;1065744;55;20201;-83